»·PEaware :: BOE561 KSFO-KSEA

BOE561 :: KSFO-KSEA

FLIGHT INFORMATION

Flight Status: Arrived
Operator:
Boeing Commercial Airplane Group
More flights by this operator :: More flights under this callsign
Pilot: Ben F. (2808)
Aircraft: BOEING 737-200
(B732)
More flights by this aircraft type
Origin: KSFO San Francisco Intl
United States
Destination: KSEA Seattle-Tacoma Intl
United States
More flights between these airports :: More routes between these airports
Route: +SFO4 NORMM RBL LMT BTG OLM2
File this flight plan on PilotEdge
Remarks:
Altitude:
(Current/Filed)
32,000ft
Speed:
(Current/Filed)
430kts
Departed: 24-Mar-18 08:09 AM
Arrived: 24-Mar-18 09:38 AM
Distance/Time
Traveled:
589nm/1:29
Distance/Time
To Go:
Arrived

Flight Plot

Page will automatically refresh every two minutes.

Flight plan parsing failed; only flown route is shown


Map Options




Map Legend


Flown Route
Filed Route
Departure Airport
Arrival Airport
Navaid (VOR, NDB)
Fix

Horizontal Profiles

Position Reports

Time Latitude Longitude Heading Altitude Ground
Speed
24-Mar-18 07:25 37.627741 -122.384668 62 22ft 0kts
24-Mar-18 07:26 37.627741 -122.384668 62 22ft 0kts
24-Mar-18 07:27 37.627741 -122.384668 62 22ft 0kts
24-Mar-18 07:28 37.627741 -122.384668 62 22ft 0kts
24-Mar-18 07:29 37.627741 -122.384668 62 22ft 0kts
24-Mar-18 07:30 37.627741 -122.384668 62 22ft 0kts
24-Mar-18 07:31 37.627741 -122.384668 62 22ft 0kts
24-Mar-18 07:32 37.627741 -122.384668 62 22ft 0kts
24-Mar-18 07:33 37.627741 -122.384668 62 22ft 0kts
24-Mar-18 07:34 37.627741 -122.384668 62 22ft 0kts
24-Mar-18 07:35 37.627741 -122.384668 62 22ft 0kts
24-Mar-18 07:36 37.627741 -122.384668 62 22ft 0kts
24-Mar-18 07:37 37.627741 -122.384668 62 22ft 0kts
24-Mar-18 07:38 37.627741 -122.384668 62 22ft 0kts
24-Mar-18 07:39 37.627741 -122.384668 62 22ft 0kts
24-Mar-18 07:40 37.627741 -122.384668 62 22ft 0kts
24-Mar-18 07:41 37.627741 -122.384668 62 22ft 0kts
24-Mar-18 07:42 37.627741 -122.384668 62 22ft 0kts
24-Mar-18 07:43 37.627741 -122.384668 62 22ft 0kts
24-Mar-18 07:44 37.627741 -122.384668 62 22ft 0kts
24-Mar-18 07:45 37.627741 -122.384668 62 22ft 0kts
24-Mar-18 07:46 37.627741 -122.384668 62 22ft 0kts
24-Mar-18 07:47 37.627741 -122.384668 62 22ft 0kts
24-Mar-18 07:48 37.627741 -122.384668 62 22ft 0kts
24-Mar-18 07:49 37.627741 -122.384668 62 22ft 0kts
24-Mar-18 07:50 37.627741 -122.384668 62 22ft 0kts
24-Mar-18 07:51 37.627741 -122.384668 62 22ft 0kts
24-Mar-18 07:52 37.627741 -122.384668 62 22ft 0kts
24-Mar-18 07:53 37.627741 -122.384668 62 22ft 0kts
24-Mar-18 07:54 37.627741 -122.384668 62 22ft 0kts
24-Mar-18 07:55 37.627741 -122.384668 62 22ft 0kts
24-Mar-18 07:56 37.627741 -122.384668 62 22ft 0kts
24-Mar-18 07:57 37.627741 -122.384668 62 22ft 0kts
24-Mar-18 07:58 37.627741 -122.384668 62 22ft 0kts
24-Mar-18 07:59 37.627741 -122.384668 62 22ft 0kts
24-Mar-18 08:00 37.627284 -122.384309 211 22ft 0kts
24-Mar-18 08:01 37.627028 -122.384506 209 22ft 8kts
24-Mar-18 08:02 37.624192 -122.378870 118 22ft 23kts
24-Mar-18 08:03 37.622543 -122.374908 116 22ft 0kts
24-Mar-18 08:04 37.619974 -122.368797 118 22ft 29kts
24-Mar-18 08:05 37.616306 -122.360088 119 22ft 28kts
24-Mar-18 08:06 37.614512 -122.356757 185 22ft 0kts
24-Mar-18 08:07 37.614017 -122.358292 297 22ft 0kts
24-Mar-18 08:08 37.629839 -122.391388 301 1109ft 173kts
24-Mar-18 08:09 37.652254 -122.451769 298 3390ft 234kts
24-Mar-18 08:10 37.684923 -122.528841 298 6693ft 259kts
24-Mar-18 08:11 37.720946 -122.608143 312 9743ft 272kts
24-Mar-18 08:12 37.782947 -122.671339 327 11708ft 316kts
24-Mar-18 08:13 37.867918 -122.713255 347 13873ft 344kts
24-Mar-18 08:14 37.965232 -122.703778 359 15862ft 362kts
24-Mar-18 08:15 38.065725 -122.681091 5 17657ft 377kts
24-Mar-18 08:16 38.167380 -122.659104 4 19154ft 389kts
24-Mar-18 08:17 38.273793 -122.636425 3 20587ft 398kts
24-Mar-18 08:18 38.381270 -122.613488 3 22027ft 403kts
24-Mar-18 08:19 38.491447 -122.589917 3 23227ft 411kts
24-Mar-18 08:20 38.602658 -122.566046 2 24269ft 419kts
24-Mar-18 08:21 38.716643 -122.541494 2 25229ft 426kts
24-Mar-18 08:22 38.832959 -122.516363 2 26095ft 433kts
24-Mar-18 08:23 38.951767 -122.490635 2 26749ft 443kts
24-Mar-18 08:24 39.073310 -122.464190 2 27305ft 453kts
24-Mar-18 08:25 39.193923 -122.437828 2 27953ft 458kts
24-Mar-18 08:26 39.317662 -122.410721 2 28502ft 463kts
24-Mar-18 08:27 39.443065 -122.383126 2 29174ft 463kts
24-Mar-18 08:28 39.569062 -122.355319 2 29766ft 465kts
24-Mar-18 08:29 39.690838 -122.328340 2 30329ft 464kts
24-Mar-18 08:30 39.814018 -122.300951 2 30923ft 462kts
24-Mar-18 08:31 39.937731 -122.273356 2 31397ft 463kts
24-Mar-18 08:32 40.061496 -122.245642 2 31843ft 464kts
24-Mar-18 08:33 40.181970 -122.217264 2 32116ft 469kts
24-Mar-18 08:34 40.308602 -122.186820 2 32116ft 478kts
24-Mar-18 08:35 40.437979 -122.155463 3 32111ft 486kts
24-Mar-18 08:36 40.568842 -122.123284 3 32107ft 487kts
24-Mar-18 08:37 40.698593 -122.091258 3 32110ft 484kts
24-Mar-18 08:38 40.827065 -122.059675 2 32112ft 482kts
24-Mar-18 08:39 40.956713 -122.027890 3 32113ft 484kts
24-Mar-18 08:40 41.086715 -121.995947 4 32117ft 485kts
24-Mar-18 08:41 41.213491 -121.978652 354 32064ft 476kts
24-Mar-18 08:42 41.343458 -121.975224 354 32017ft 476kts
24-Mar-18 08:43 41.455018 -121.974041 353 32017ft 475kts
24-Mar-18 08:44 41.585778 -121.967004 357 32019ft 478kts
24-Mar-18 08:45 41.716994 -121.954775 357 31992ft 479kts
24-Mar-18 08:46 41.848821 -121.942452 357 31972ft 479kts
24-Mar-18 08:47 41.980602 -121.929997 357 31971ft 480kts
24-Mar-18 08:48 42.108640 -121.916471 358 31966ft 481kts
24-Mar-18 08:49 42.238735 -121.901254 357 31961ft 479kts
24-Mar-18 08:50 42.370354 -121.898833 351 31963ft 473kts
24-Mar-18 08:51 42.500335 -121.905591 350 31964ft 472kts
24-Mar-18 08:52 42.630215 -121.913538 348 31964ft 470kts
24-Mar-18 08:53 42.758338 -121.933865 342 31968ft 464kts
24-Mar-18 08:54 42.884524 -121.963554 342 31966ft 465kts
24-Mar-18 08:55 43.010494 -121.994842 345 31977ft 465kts
24-Mar-18 08:56 43.132780 -122.020156 345 31978ft 465kts
24-Mar-18 08:57 43.257391 -122.046366 345 31978ft 464kts
24-Mar-18 08:58 43.383302 -122.072992 345 31966ft 464kts
24-Mar-18 08:59 43.508587 -122.099597 345 31942ft 464kts
24-Mar-18 09:00 43.634097 -122.126360 345 31935ft 464kts
24-Mar-18 09:01 43.759439 -122.153204 345 31936ft 464kts
24-Mar-18 09:02 43.885450 -122.180306 345 31940ft 464kts
24-Mar-18 09:03 44.011516 -122.207534 345 31948ft 464kts
24-Mar-18 09:04 44.133956 -122.234095 345 31947ft 464kts
24-Mar-18 09:05 44.252404 -122.259546 346 31953ft 463kts
24-Mar-18 09:06 44.373612 -122.284758 346 31966ft 463kts
24-Mar-18 09:07 44.497880 -122.311200 345 31988ft 462kts
24-Mar-18 09:08 44.621656 -122.338375 345 31995ft 462kts
24-Mar-18 09:09 44.742501 -122.365081 345 32006ft 462kts
24-Mar-18 09:10 44.859339 -122.391063 345 32018ft 462kts
24-Mar-18 09:11 44.982861 -122.418669 345 32018ft 463kts
24-Mar-18 09:12 45.102547 -122.445583 347 32019ft 463kts
24-Mar-18 09:13 45.219584 -122.471881 347 32017ft 463kts
24-Mar-18 09:14 45.334863 -122.497951 347 32012ft 463kts
24-Mar-18 09:15 45.442943 -122.554627 315 30195ft 430kts
24-Mar-18 09:16 45.525296 -122.654426 314 27904ft 417kts
24-Mar-18 09:17 45.603510 -122.749722 314 25879ft 401kts
24-Mar-18 09:18 45.682685 -122.846552 314 24005ft 378kts
24-Mar-18 09:19 45.762431 -122.911465 358 24037ft 350kts
24-Mar-18 09:20 45.863890 -122.904222 357 24025ft 403kts
24-Mar-18 09:21 45.976110 -122.903004 356 24018ft 426kts
24-Mar-18 09:22 46.091152 -122.902982 356 24021ft 429kts
24-Mar-18 09:23 46.191452 -122.902980 356 24017ft 432kts
24-Mar-18 09:24 46.298381 -122.902976 356 24017ft 433kts
24-Mar-18 09:37 47.435501 -122.304141 89 442ft 0kts
24-Mar-18 09:38 47.435501 -122.304141 89 442ft 0kts
24-Mar-18 09:39 47.435501 -122.304141 89 442ft 0kts
24-Mar-18 09:40 47.435501 -122.304141 89 442ft 0kts
24-Mar-18 09:41 47.435501 -122.304141 89 442ft 0kts
24-Mar-18 09:42 47.435501 -122.304141 89 442ft 0kts
24-Mar-18 09:43 47.435501 -122.304141 89 442ft 0kts
24-Mar-18 09:44 47.435501 -122.304141 89 442ft 0kts
24-Mar-18 09:45 47.435501 -122.304141 89 442ft 0kts
24-Mar-18 09:46 47.435501 -122.304141 89 442ft 0kts
24-Mar-18 09:47 47.435501 -122.304141 89 442ft 0kts
24-Mar-18 09:48 47.435501 -122.304141 89 442ft 0kts
24-Mar-18 09:49 47.435501 -122.304141 89 442ft 0kts
24-Mar-18 09:50 47.435501 -122.304141 89 442ft 0kts
24-Mar-18 09:51 47.435501 -122.304141 89 442ft 0kts

Navigation Log

Ident Type
Flight plan parsing failed, navigation log unavailable